Impacts TAF Board
For situational awareness. Not to be used for flight planning purposes.
IDs:

KTOI - Troy Muni, AL, US

Issued at 1731 UTC 30 Jun 2022
Updated at 2156 UTC 30 Jun 2022
Potential Impact None Slight Moderate High
Time2153Z 30/22Z 30/23Z 01/00Z 01/01Z 01/02Z 01/03Z 01/04Z 01/05Z 01/06Z 01/07Z 01/08Z 01/09Z 01/10Z>>
Type OBS PRVL
  [TEMP]  
PRVL
  [TEMP]  
PRVL PRVL PRVL PRVL
  [PRB30]  
PRVL
  [PRB30]  
PRVL
  [PRB30]  
PRVL PRVL PRVL PRVL PRVL
VIS 10 >6
  [4]  
>6
  [4]  
>6 >6 >6 >6
  [4]  
>6
  [4]  
>6
  [4]  
>6 >6 >6 >6 >6
CIG 30 40
  [25]  
40
  [25]  
45 45 45 40
  [25]  
40
  [25]  
40
  [25]  
40 40 40 40 40
Cover BKN BKN
  [OVC]  
BKN
  [OVC]  
BKN BKN BKN BKN
  [OVC]  
BKN
  [OVC]  
BKN
  [OVC]  
BKN BKN BKN BKN BKN
FltCat MVFR VFR
  [MVFR]  
VFR
  [MVFR]  
VFR VFR VFR VFR
  [MVFR]  
VFR
  [MVFR]  
VFR
  [MVFR]  
VFR VFR VFR VFR VFR
WX -- VCSH
  [TSRA BR]  
VCSH
  [TSRA BR]  
VCSH VCSH VCSH --
  [TSRA BR]  
--
  [TSRA BR]  
--
  [TSRA BR]  
-- -- -- -- --
WDir 210 100
[100]
100
[100]
VRB VRB VRB VRB
[VRB]
VRB
[VRB]
VRB
[VRB]
VRB VRB VRB VRB VRB
WSpd 8 5
  [5]  
5
  [5]  
4 4 4 3
  [3]  
3
  [3]  
3
  [3]  
3 3 3 3 3
WGst -- --
  [--]  
--
  [--]  
-- -- -- --
  [--]  
--
  [--]  
--
  [--]  
-- -- -- -- --
WSHgt -- --
[--]
--
[--]
-- -- -- --
[--]
--
[--]
--
[--]
-- -- -- -- --
WSDir -- --
[--]
--
[--]
-- -- -- --
[--]
--
[--]
--
[--]
-- -- -- -- --
WSSpd -- --
[--]
--
[--]
-- -- -- --
[--]
--
[--]
--
[--]
-- -- -- -- --
Raw TAF
KTOI 301731Z 3018/0118 10006KT P6SM VCSH BKN035
  FM302100 10005KT P6SM VCSH BKN040
  TEMPO 3021/3024 4SM TSRA BR OVC025CB
  FM010000 VRB04KT P6SM VCSH BKN045
  FM010300 VRB03KT P6SM BKN040
  PROB30 0103/0106 4SM TSRA BR OVC025CB
  FM011500 VRB03KT P6SM BKN040


Raw METAR
KTOI 302153Z AUTO 21008KT 10SM SCT023 BKN030 27/22 A3012 RMK AO2 LTG DSNT NW SLP195 T02720217
KTOI 302053Z AUTO 11004KT 10SM CLR 29/21 A3011 RMK AO2 LTG DSNT SW-NW SLP191 T02890211 56016
KTOI 301953Z AUTO 09005KT 10SM CLR 30/21 A3012 RMK AO2 SLP192 T03000211
KTOI 301853Z AUTO 09006KT 10SM FEW028 31/21 A3013 RMK AO2 SLP197 T03110211

METAR Board
Radar Display
Forecast Discussion
For situational awareness. Not to be used for flight planning purposes.